Victory City, Texas
Current Conditions -  °F | °C
As of 5:53 AM on Thursday 29 Jan 2015 (Local Time) from KTXK Reporting Station
Clear Clear  
Wind Chill: 53°   Ceiling: Unl
Heat Index: 53°   Visibility: 10mi
Dew Point: 46°   Wind: 7mph
Humidity: 77%   Direction: 220°SW
Pressure: 30.08"   Gusts: NA
Location:  33.474°N, 94.2882°W
Report Text: KTXK 291153Z 22006KT 10SM CLR 12/08 A3008 RMK AO2 SLP182 T01170078 10156 20117 53004
Loading
Personal Weather Stations






























Interactive Weather Map New forecast layout! Learn more

10-Day Weather Forecast

Advertisements
Track Severe Weather on mobile